sensor_id;sensor_type;location;lat;lon;timestamp;P1;durP1;ratioP1;P2;durP2;ratioP2
68178;SDS011;69812;42.632;23.440;2023-10-13T00:01:54;10.65;;;6.97;;
68178;SDS011;69812;42.632;23.440;2023-10-13T00:04:21;13.18;;;7.68;;
68178;SDS011;69812;42.632;23.440;2023-10-13T00:06:53;12.93;;;7.40;;
68178;SDS011;69812;42.632;23.440;2023-10-13T00:09:21;14.35;;;7.85;;
68178;SDS011;69812;42.632;23.440;2023-10-13T00:11:51;14.10;;;7.70;;
68178;SDS011;69812;42.632;23.440;2023-10-13T00:14:17;14.30;;;8.32;;
68178;SDS011;69812;42.632;23.440;2023-10-13T00:16:44;15.50;;;8.00;;
68178;SDS011;69812;42.632;23.440;2023-10-13T00:19:28;13.70;;;8.07;;
68178;SDS011;69812;42.632;23.440;2023-10-13T00:22:06;13.48;;;7.55;;
68178;SDS011;69812;42.632;23.440;2023-10-13T00:24:39;12.63;;;8.05;;
68178;SDS011;69812;42.632;23.440;2023-10-13T00:29:59;12.20;;;7.28;;
68178;SDS011;69812;42.632;23.440;2023-10-13T00:35:22;10.60;;;7.13;;
68178;SDS011;69812;42.632;23.440;2023-10-13T00:38:01;13.27;;;7.55;;
68178;SDS011;69812;42.632;23.440;2023-10-13T00:40:30;16.30;;;7.60;;
68178;SDS011;69812;42.632;23.440;2023-10-13T00:42:59;12.57;;;7.15;;
68178;SDS011;69812;42.632;23.440;2023-10-13T00:45:50;13.88;;;8.05;;
68178;SDS011;69812;42.632;23.440;2023-10-13T00:48:26;14.82;;;7.88;;
68178;SDS011;69812;42.632;23.440;2023-10-13T00:51:00;12.60;;;7.55;;
68178;SDS011;69812;42.632;23.440;2023-10-13T00:53:32;14.43;;;7.93;;
68178;SDS011;69812;42.632;23.440;2023-10-13T00:56:09;16.58;;;8.20;;
68178;SDS011;69812;42.632;23.440;2023-10-13T00:58:47;14.68;;;8.27;;
68178;SDS011;69812;42.632;23.440;2023-10-13T01:01:16;13.18;;;7.93;;
68178;SDS011;69812;42.632;23.440;2023-10-13T01:03:47;12.05;;;7.22;;
68178;SDS011;69812;42.632;23.440;2023-10-13T01:08:46;12.13;;;6.57;;
68178;SDS011;69812;42.632;23.440;2023-10-13T01:11:18;12.18;;;7.55;;
68178;SDS011;69812;42.632;23.440;2023-10-13T01:13:44;14.07;;;7.32;;
68178;SDS011;69812;42.632;23.440;2023-10-13T01:16:12;14.70;;;7.78;;
68178;SDS011;69812;42.632;23.440;2023-10-13T01:18:37;15.30;;;8.02;;
68178;SDS011;69812;42.632;23.440;2023-10-13T01:21:13;14.27;;;8.57;;
68178;SDS011;69812;42.632;23.440;2023-10-13T01:23:41;14.80;;;7.10;;
68178;SDS011;69812;42.632;23.440;2023-10-13T01:26:07;13.70;;;7.72;;
68178;SDS011;69812;42.632;23.440;2023-10-13T01:28:34;16.52;;;7.78;;
68178;SDS011;69812;42.632;23.440;2023-10-13T01:31:10;12.70;;;7.57;;
68178;SDS011;69812;42.632;23.440;2023-10-13T01:33:49;14.45;;;8.10;;
68178;SDS011;69812;42.632;23.440;2023-10-13T01:36:18;11.70;;;7.50;;
68178;SDS011;69812;42.632;23.440;2023-10-13T01:38:44;13.45;;;7.47;;
68178;SDS011;69812;42.632;23.440;2023-10-13T01:41:09;13.57;;;6.80;;
68178;SDS011;69812;42.632;23.440;2023-10-13T01:43:34;11.63;;;7.40;;
68178;SDS011;69812;42.632;23.440;2023-10-13T01:46:00;13.35;;;7.25;;
68178;SDS011;69812;42.632;23.440;2023-10-13T01:48:31;15.70;;;7.65;;
68178;SDS011;69812;42.632;23.440;2023-10-13T01:51:03;12.85;;;7.65;;
68178;SDS011;69812;42.632;23.440;2023-10-13T01:53:30;13.20;;;7.25;;
68178;SDS011;69812;42.632;23.440;2023-10-13T01:55:58;11.48;;;7.53;;
68178;SDS011;69812;42.632;23.440;2023-10-13T01:58:24;13.05;;;8.10;;
68178;SDS011;69812;42.632;23.440;2023-10-13T02:00:54;14.27;;;8.27;;
68178;SDS011;69812;42.632;23.440;2023-10-13T02:03:21;16.20;;;7.53;;
68178;SDS011;69812;42.632;23.440;2023-10-13T02:05:47;16.38;;;8.48;;
68178;SDS011;69812;42.632;23.440;2023-10-13T02:08:17;13.13;;;8.00;;
68178;SDS011;69812;42.632;23.440;2023-10-13T02:10:48;13.27;;;7.00;;
68178;SDS011;69812;42.632;23.440;2023-10-13T02:13:14;13.20;;;8.00;;
68178;SDS011;69812;42.632;23.440;2023-10-13T02:15:42;13.57;;;7.63;;
68178;SDS011;69812;42.632;23.440;2023-10-13T02:18:09;13.75;;;8.55;;
68178;SDS011;69812;42.632;23.440;2023-10-13T02:20:35;13.48;;;7.50;;
68178;SDS011;69812;42.632;23.440;2023-10-13T02:23:08;11.88;;;7.25;;
68178;SDS011;69812;42.632;23.440;2023-10-13T02:25:37;13.63;;;7.68;;
68178;SDS011;69812;42.632;23.440;2023-10-13T02:28:08;15.30;;;7.93;;
68178;SDS011;69812;42.632;23.440;2023-10-13T02:30:44;13.15;;;6.65;;
68178;SDS011;69812;42.632;23.440;2023-10-13T02:33:13;15.10;;;7.35;;
68178;SDS011;69812;42.632;23.440;2023-10-13T02:35:39;12.82;;;7.70;;
68178;SDS011;69812;42.632;23.440;2023-10-13T02:38:15;14.32;;;7.35;;
68178;SDS011;69812;42.632;23.440;2023-10-13T02:40:51;12.27;;;6.75;;
68178;SDS011;69812;42.632;23.440;2023-10-13T02:43:16;13.45;;;7.32;;
68178;SDS011;69812;42.632;23.440;2023-10-13T02:45:41;13.75;;;6.57;;
68178;SDS011;69812;42.632;23.440;2023-10-13T02:48:08;12.60;;;7.85;;
68178;SDS011;69812;42.632;23.440;2023-10-13T02:50:42;13.60;;;7.78;;
68178;SDS011;69812;42.632;23.440;2023-10-13T02:53:10;14.02;;;7.05;;
68178;SDS011;69812;42.632;23.440;2023-10-13T02:55:49;13.75;;;7.38;;
68178;SDS011;69812;42.632;23.440;2023-10-13T02:58:18;11.93;;;7.05;;
68178;SDS011;69812;42.632;23.440;2023-10-13T03:00:43;12.75;;;7.80;;
68178;SDS011;69812;42.632;23.440;2023-10-13T03:03:10;15.48;;;7.85;;
68178;SDS011;69812;42.632;23.440;2023-10-13T03:05:35;14.30;;;8.00;;
68178;SDS011;69812;42.632;23.440;2023-10-13T03:08:06;16.27;;;8.05;;
68178;SDS011;69812;42.632;23.440;2023-10-13T03:10:34;13.23;;;8.48;;
68178;SDS011;69812;42.632;23.440;2023-10-13T03:13:05;14.02;;;8.07;;
68178;SDS011;69812;42.632;23.440;2023-10-13T03:15:33;13.25;;;7.68;;
68178;SDS011;69812;42.632;23.440;2023-10-13T03:18:00;15.90;;;8.73;;
68178;SDS011;69812;42.632;23.440;2023-10-13T03:20:27;14.85;;;8.70;;
68178;SDS011;69812;42.632;23.440;2023-10-13T03:22:58;13.60;;;8.27;;
68178;SDS011;69812;42.632;23.440;2023-10-13T03:25:24;14.82;;;8.38;;
68178;SDS011;69812;42.632;23.440;2023-10-13T03:28:01;15.82;;;8.20;;
68178;SDS011;69812;42.632;23.440;2023-10-13T03:30:29;14.65;;;8.27;;
68178;SDS011;69812;42.632;23.440;2023-10-13T03:33:01;13.68;;;8.57;;
68178;SDS011;69812;42.632;23.440;2023-10-13T03:35:31;15.70;;;8.05;;
68178;SDS011;69812;42.632;23.440;2023-10-13T03:38:07;14.70;;;8.02;;
68178;SDS011;69812;42.632;23.440;2023-10-13T03:40:46;18.17;;;8.05;;
68178;SDS011;69812;42.632;23.440;2023-10-13T03:43:20;12.55;;;7.63;;
68178;SDS011;69812;42.632;23.440;2023-10-13T03:45:49;16.30;;;7.35;;
68178;SDS011;69812;42.632;23.440;2023-10-13T03:48:26;11.10;;;6.57;;
68178;SDS011;69812;42.632;23.440;2023-10-13T03:51:01;14.25;;;8.43;;
68178;SDS011;69812;42.632;23.440;2023-10-13T03:53:42;16.77;;;8.48;;
68178;SDS011;69812;42.632;23.440;2023-10-13T03:56:24;14.60;;;8.85;;
68178;SDS011;69812;42.632;23.440;2023-10-13T03:58:51;11.60;;;7.03;;
68178;SDS011;69812;42.632;23.440;2023-10-13T04:01:19;14.65;;;8.15;;
68178;SDS011;69812;42.632;23.440;2023-10-13T04:03:54;15.50;;;8.15;;
68178;SDS011;69812;42.632;23.440;2023-10-13T04:06:28;15.07;;;7.80;;
68178;SDS011;69812;42.632;23.440;2023-10-13T04:09:22;16.35;;;9.02;;
68178;SDS011;69812;42.632;23.440;2023-10-13T04:14:35;15.25;;;8.20;;
68178;SDS011;69812;42.632;23.440;2023-10-13T04:17:20;13.80;;;8.25;;
68178;SDS011;69812;42.632;23.440;2023-10-13T04:19:51;16.30;;;8.55;;
68178;SDS011;69812;42.632;23.440;2023-10-13T04:27:57;15.23;;;8.95;;
68178;SDS011;69812;42.632;23.440;2023-10-13T04:33:22;17.90;;;10.25;;
68178;SDS011;69812;42.632;23.440;2023-10-13T04:36:10;18.10;;;10.27;;
68178;SDS011;69812;42.632;23.440;2023-10-13T04:38:55;19.42;;;9.50;;
68178;SDS011;69812;42.632;23.440;2023-10-13T04:41:25;17.90;;;9.95;;
68178;SDS011;69812;42.632;23.440;2023-10-13T04:43:57;22.63;;;10.25;;
68178;SDS011;69812;42.632;23.440;2023-10-13T04:46:30;18.25;;;10.30;;
68178;SDS011;69812;42.632;23.440;2023-10-13T04:49:26;18.65;;;10.70;;
68178;SDS011;69812;42.632;23.440;2023-10-13T04:52:15;21.20;;;10.27;;
68178;SDS011;69812;42.632;23.440;2023-10-13T04:55:00;16.35;;;9.68;;
68178;SDS011;69812;42.632;23.440;2023-10-13T04:57:42;16.17;;;9.57;;
68178;SDS011;69812;42.632;23.440;2023-10-13T05:00:10;20.02;;;9.98;;
68178;SDS011;69812;42.632;23.440;2023-10-13T05:02:37;23.25;;;12.15;;
68178;SDS011;69812;42.632;23.440;2023-10-13T05:07:39;23.67;;;13.23;;
68178;SDS011;69812;42.632;23.440;2023-10-13T05:10:23;26.83;;;13.77;;
68178;SDS011;69812;42.632;23.440;2023-10-13T05:13:07;27.33;;;15.80;;
68178;SDS011;69812;42.632;23.440;2023-10-13T05:15:54;29.92;;;15.90;;
68178;SDS011;69812;42.632;23.440;2023-10-13T05:18:38;28.35;;;16.35;;
68178;SDS011;69812;42.632;23.440;2023-10-13T05:21:22;23.75;;;13.82;;
68178;SDS011;69812;42.632;23.440;2023-10-13T05:24:06;21.40;;;12.15;;
68178;SDS011;69812;42.632;23.440;2023-10-13T05:26:51;20.08;;;11.70;;
68178;SDS011;69812;42.632;23.440;2023-10-13T05:29:39;19.88;;;11.20;;
68178;SDS011;69812;42.632;23.440;2023-10-13T05:32:24;17.48;;;8.25;;
68178;SDS011;69812;42.632;23.440;2023-10-13T05:35:09;13.50;;;7.28;;
68178;SDS011;69812;42.632;23.440;2023-10-13T05:51:41;14.35;;;6.10;;
68178;SDS011;69812;42.632;23.440;2023-10-13T05:54:23;10.70;;;5.57;;
68178;SDS011;69812;42.632;23.440;2023-10-13T05:57:07;14.68;;;6.28;;
68178;SDS011;69812;42.632;23.440;2023-10-13T05:59:51;11.60;;;5.68;;
68178;SDS011;69812;42.632;23.440;2023-10-13T06:02:35;15.70;;;6.55;;
68178;SDS011;69812;42.632;23.440;2023-10-13T06:05:19;11.43;;;5.90;;
68178;SDS011;69812;42.632;23.440;2023-10-13T06:08:23;13.07;;;6.43;;
68178;SDS011;69812;42.632;23.440;2023-10-13T06:11:06;9.23;;;6.25;;
68178;SDS011;69812;42.632;23.440;2023-10-13T06:16:36;11.40;;;7.03;;
68178;SDS011;69812;42.632;23.440;2023-10-13T06:19:20;12.93;;;7.18;;
68178;SDS011;69812;42.632;23.440;2023-10-13T06:22:04;11.35;;;6.75;;
68178;SDS011;69812;42.632;23.440;2023-10-13T06:24:48;10.20;;;6.90;;
68178;SDS011;69812;42.632;23.440;2023-10-13T06:27:32;12.48;;;6.93;;
68178;SDS011;69812;42.632;23.440;2023-10-13T06:30:16;10.63;;;6.82;;
68178;SDS011;69812;42.632;23.440;2023-10-13T06:32:42;13.07;;;8.80;;
68178;SDS011;69812;42.632;23.440;2023-10-13T06:35:08;12.80;;;7.13;;
68178;SDS011;69812;42.632;23.440;2023-10-13T06:37:33;12.32;;;8.05;;
68178;SDS011;69812;42.632;23.440;2023-10-13T06:40:10;15.57;;;7.63;;
68178;SDS011;69812;42.632;23.440;2023-10-13T06:42:58;14.55;;;7.15;;
68178;SDS011;69812;42.632;23.440;2023-10-13T06:45:42;11.23;;;7.72;;
68178;SDS011;69812;42.632;23.440;2023-10-13T06:48:22;13.57;;;7.50;;
68178;SDS011;69812;42.632;23.440;2023-10-13T06:50:49;10.35;;;7.20;;
68178;SDS011;69812;42.632;23.440;2023-10-13T06:53:16;13.10;;;8.65;;
68178;SDS011;69812;42.632;23.440;2023-10-13T06:55:41;12.80;;;7.43;;
68178;SDS011;69812;42.632;23.440;2023-10-13T06:58:11;11.68;;;7.90;;
68178;SDS011;69812;42.632;23.440;2023-10-13T07:00:38;13.50;;;7.72;;
68178;SDS011;69812;42.632;23.440;2023-10-13T07:03:21;11.80;;;7.45;;
68178;SDS011;69812;42.632;23.440;2023-10-13T07:05:47;9.85;;;7.13;;
68178;SDS011;69812;42.632;23.440;2023-10-13T07:08:13;11.93;;;8.18;;
68178;SDS011;69812;42.632;23.440;2023-10-13T07:10:51;18.85;;;7.82;;
68178;SDS011;69812;42.632;23.440;2023-10-13T07:13:27;14.00;;;7.70;;
68178;SDS011;69812;42.632;23.440;2023-10-13T07:15:54;14.52;;;7.93;;
68178;SDS011;69812;42.632;23.440;2023-10-13T07:18:25;13.68;;;8.00;;
68178;SDS011;69812;42.632;23.440;2023-10-13T07:21:01;16.17;;;7.97;;
68178;SDS011;69812;42.632;23.440;2023-10-13T07:23:34;21.58;;;8.18;;
68178;SDS011;69812;42.632;23.440;2023-10-13T07:28:28;16.50;;;7.80;;
68178;SDS011;69812;42.632;23.440;2023-10-13T07:30:58;13.20;;;8.07;;
68178;SDS011;69812;42.632;23.440;2023-10-13T07:33:26;20.15;;;9.02;;
68178;SDS011;69812;42.632;23.440;2023-10-13T07:36:03;15.93;;;8.82;;
68178;SDS011;69812;42.632;23.440;2023-10-13T07:38:37;19.08;;;9.38;;
68178;SDS011;69812;42.632;23.440;2023-10-13T07:41:07;15.77;;;9.27;;
68178;SDS011;69812;42.632;23.440;2023-10-13T07:43:33;24.75;;;9.55;;
68178;SDS011;69812;42.632;23.440;2023-10-13T07:45:59;16.35;;;8.95;;
68178;SDS011;69812;42.632;23.440;2023-10-13T07:48:31;23.63;;;9.73;;
68178;SDS011;69812;42.632;23.440;2023-10-13T07:51:02;20.13;;;9.48;;
68178;SDS011;69812;42.632;23.440;2023-10-13T07:53:29;16.85;;;9.20;;
68178;SDS011;69812;42.632;23.440;2023-10-13T07:55:59;23.13;;;9.43;;
68178;SDS011;69812;42.632;23.440;2023-10-13T07:58:37;16.17;;;8.88;;
68178;SDS011;69812;42.632;23.440;2023-10-13T08:01:21;16.75;;;9.15;;
68178;SDS011;69812;42.632;23.440;2023-10-13T08:03:47;16.67;;;9.13;;
68178;SDS011;69812;42.632;23.440;2023-10-13T08:06:13;18.77;;;9.27;;
68178;SDS011;69812;42.632;23.440;2023-10-13T08:08:42;15.82;;;9.32;;
68178;SDS011;69812;42.632;23.440;2023-10-13T08:11:12;15.20;;;8.35;;
68178;SDS011;69812;42.632;23.440;2023-10-13T08:13:51;15.82;;;8.43;;
68178;SDS011;69812;42.632;23.440;2023-10-13T08:16:43;17.17;;;8.85;;
68178;SDS011;69812;42.632;23.440;2023-10-13T08:19:23;20.33;;;8.63;;
68178;SDS011;69812;42.632;23.440;2023-10-13T08:21:56;18.85;;;8.48;;
68178;SDS011;69812;42.632;23.440;2023-10-13T08:24:45;16.60;;;8.30;;
68178;SDS011;69812;42.632;23.440;2023-10-13T08:27:14;12.88;;;8.02;;
68178;SDS011;69812;42.632;23.440;2023-10-13T08:29:59;15.45;;;8.10;;
68178;SDS011;69812;42.632;23.440;2023-10-13T08:32:28;15.40;;;8.73;;
68178;SDS011;69812;42.632;23.440;2023-10-13T08:34:57;17.13;;;7.88;;
68178;SDS011;69812;42.632;23.440;2023-10-13T08:37:32;16.50;;;7.75;;
68178;SDS011;69812;42.632;23.440;2023-10-13T08:40:11;16.63;;;7.97;;
68178;SDS011;69812;42.632;23.440;2023-10-13T08:43:06;19.63;;;8.18;;
68178;SDS011;69812;42.632;23.440;2023-10-13T08:45:39;15.60;;;7.72;;
68178;SDS011;69812;42.632;23.440;2023-10-13T08:48:11;18.83;;;7.78;;
68178;SDS011;69812;42.632;23.440;2023-10-13T08:53:17;14.63;;;7.65;;
68178;SDS011;69812;42.632;23.440;2023-10-13T08:56:13;15.82;;;7.35;;
68178;SDS011;69812;42.632;23.440;2023-10-13T08:58:57;20.08;;;8.13;;
68178;SDS011;69812;42.632;23.440;2023-10-13T09:01:28;15.10;;;7.25;;
68178;SDS011;69812;42.632;23.440;2023-10-13T09:04:13;19.67;;;8.02;;
68178;SDS011;69812;42.632;23.440;2023-10-13T09:12:15;19.88;;;9.30;;
68178;SDS011;69812;42.632;23.440;2023-10-13T09:14:51;16.50;;;8.85;;
68178;SDS011;69812;42.632;23.440;2023-10-13T09:17:30;15.93;;;8.27;;
68178;SDS011;69812;42.632;23.440;2023-10-13T09:19:59;16.05;;;8.27;;
68178;SDS011;69812;42.632;23.440;2023-10-13T09:25:21;18.95;;;7.65;;
68178;SDS011;69812;42.632;23.440;2023-10-13T09:27:48;20.73;;;7.25;;
68178;SDS011;69812;42.632;23.440;2023-10-13T09:30:16;19.38;;;8.50;;
68178;SDS011;69812;42.632;23.440;2023-10-13T09:32:46;17.90;;;8.35;;
68178;SDS011;69812;42.632;23.440;2023-10-13T09:37:42;17.05;;;7.90;;
68178;SDS011;69812;42.632;23.440;2023-10-13T09:40:11;17.92;;;8.10;;
68178;SDS011;69812;42.632;23.440;2023-10-13T09:42:52;15.82;;;7.90;;
68178;SDS011;69812;42.632;23.440;2023-10-13T09:45:28;14.75;;;8.05;;
68178;SDS011;69812;42.632;23.440;2023-10-13T09:48:01;16.02;;;8.07;;
68178;SDS011;69812;42.632;23.440;2023-10-13T09:50:41;19.52;;;8.57;;
68178;SDS011;69812;42.632;23.440;2023-10-13T09:53:10;13.52;;;8.82;;
68178;SDS011;69812;42.632;23.440;2023-10-13T09:55:40;17.05;;;8.43;;
68178;SDS011;69812;42.632;23.440;2023-10-13T09:58:10;21.20;;;9.50;;
68178;SDS011;69812;42.632;23.440;2023-10-13T10:00:42;17.48;;;9.23;;
68178;SDS011;69812;42.632;23.440;2023-10-13T10:03:11;16.02;;;9.30;;
68178;SDS011;69812;42.632;23.440;2023-10-13T10:05:43;15.40;;;8.80;;
68178;SDS011;69812;42.632;23.440;2023-10-13T10:08:31;15.73;;;8.98;;
68178;SDS011;69812;42.632;23.440;2023-10-13T10:16:45;17.67;;;8.77;;
68178;SDS011;69812;42.632;23.440;2023-10-13T10:19:44;16.52;;;8.52;;
68178;SDS011;69812;42.632;23.440;2023-10-13T10:22:27;19.13;;;8.98;;
68178;SDS011;69812;42.632;23.440;2023-10-13T10:24:58;16.60;;;8.75;;
68178;SDS011;69812;42.632;23.440;2023-10-13T10:27:32;18.13;;;9.35;;
68178;SDS011;69812;42.632;23.440;2023-10-13T10:30:01;17.05;;;8.63;;
68178;SDS011;69812;42.632;23.440;2023-10-13T10:32:37;13.88;;;7.75;;
68178;SDS011;69812;42.632;23.440;2023-10-13T10:35:07;18.30;;;8.80;;
68178;SDS011;69812;42.632;23.440;2023-10-13T10:37:41;18.35;;;8.88;;
68178;SDS011;69812;42.632;23.440;2023-10-13T10:40:12;14.98;;;8.02;;
68178;SDS011;69812;42.632;23.440;2023-10-13T10:43:02;11.15;;;5.88;;
68178;SDS011;69812;42.632;23.440;2023-10-13T10:45:35;10.55;;;5.25;;
68178;SDS011;69812;42.632;23.440;2023-10-13T10:48:01;13.27;;;6.68;;
68178;SDS011;69812;42.632;23.440;2023-10-13T10:50:42;9.23;;;5.57;;
68178;SDS011;69812;42.632;23.440;2023-10-13T10:53:09;9.68;;;5.68;;
68178;SDS011;69812;42.632;23.440;2023-10-13T10:55:37;10.40;;;6.13;;
68178;SDS011;69812;42.632;23.440;2023-10-13T10:58:03;13.35;;;5.65;;
68178;SDS011;69812;42.632;23.440;2023-10-13T11:00:32;10.30;;;5.18;;
68178;SDS011;69812;42.632;23.440;2023-10-13T11:03:11;9.35;;;4.95;;
68178;SDS011;69812;42.632;23.440;2023-10-13T11:08:22;10.35;;;4.93;;
68178;SDS011;69812;42.632;23.440;2023-10-13T11:10:57;9.55;;;4.30;;
68178;SDS011;69812;42.632;23.440;2023-10-13T11:13:25;11.50;;;5.00;;
68178;SDS011;69812;42.632;23.440;2023-10-13T11:15:55;10.13;;;3.97;;
68178;SDS011;69812;42.632;23.440;2023-10-13T11:18:28;8.52;;;4.15;;
68178;SDS011;69812;42.632;23.440;2023-10-13T11:20:59;9.95;;;3.78;;
68178;SDS011;69812;42.632;23.440;2023-10-13T11:23:24;8.10;;;4.22;;
68178;SDS011;69812;42.632;23.440;2023-10-13T11:25:59;8.82;;;3.90;;
68178;SDS011;69812;42.632;23.440;2023-10-13T11:28:25;11.07;;;4.40;;
68178;SDS011;69812;42.632;23.440;2023-10-13T11:30:54;9.98;;;4.45;;
68178;SDS011;69812;42.632;23.440;2023-10-13T11:33:35;9.88;;;4.35;;
68178;SDS011;69812;42.632;23.440;2023-10-13T11:36:03;7.65;;;4.72;;
68178;SDS011;69812;42.632;23.440;2023-10-13T11:38:31;7.78;;;4.03;;
68178;SDS011;69812;42.632;23.440;2023-10-13T11:41:01;7.20;;;4.10;;
68178;SDS011;69812;42.632;23.440;2023-10-13T11:43:31;8.07;;;3.90;;
68178;SDS011;69812;42.632;23.440;2023-10-13T11:46:00;9.07;;;4.20;;
68178;SDS011;69812;42.632;23.440;2023-10-13T11:48:35;7.22;;;3.55;;
68178;SDS011;69812;42.632;23.440;2023-10-13T11:51:06;4.93;;;3.20;;
68178;SDS011;69812;42.632;23.440;2023-10-13T11:53:32;8.68;;;4.15;;
68178;SDS011;69812;42.632;23.440;2023-10-13T11:56:01;8.43;;;3.55;;
68178;SDS011;69812;42.632;23.440;2023-10-13T12:00:59;7.00;;;3.80;;
68178;SDS011;69812;42.632;23.440;2023-10-13T12:06:27;8.60;;;3.38;;
68178;SDS011;69812;42.632;23.440;2023-10-13T12:11:41;7.82;;;2.90;;
68178;SDS011;69812;42.632;23.440;2023-10-13T12:14:07;4.55;;;2.80;;
68178;SDS011;69812;42.632;23.440;2023-10-13T12:16:44;7.22;;;3.83;;
68178;SDS011;69812;42.632;23.440;2023-10-13T12:19:20;5.15;;;2.63;;
68178;SDS011;69812;42.632;23.440;2023-10-13T12:24:15;6.13;;;3.22;;
68178;SDS011;69812;42.632;23.440;2023-10-13T12:26:59;5.97;;;3.20;;
68178;SDS011;69812;42.632;23.440;2023-10-13T12:29:24;6.18;;;3.00;;
68178;SDS011;69812;42.632;23.440;2023-10-13T12:31:56;8.52;;;3.15;;
68178;SDS011;69812;42.632;23.440;2023-10-13T12:34:36;7.03;;;2.72;;
68178;SDS011;69812;42.632;23.440;2023-10-13T12:37:20;8.07;;;3.80;;
68178;SDS011;69812;42.632;23.440;2023-10-13T12:40:06;11.10;;;3.45;;
68178;SDS011;69812;42.632;23.440;2023-10-13T12:42:51;7.53;;;3.85;;
68178;SDS011;69812;42.632;23.440;2023-10-13T12:45:38;6.95;;;3.33;;
68178;SDS011;69812;42.632;23.440;2023-10-13T12:48:26;5.78;;;2.88;;
68178;SDS011;69812;42.632;23.440;2023-10-13T12:51:11;5.88;;;2.90;;
68178;SDS011;69812;42.632;23.440;2023-10-13T12:53:52;6.93;;;2.92;;
68178;SDS011;69812;42.632;23.440;2023-10-13T12:56:18;7.13;;;2.92;;
68178;SDS011;69812;42.632;23.440;2023-10-13T13:01:20;8.05;;;3.00;;
68178;SDS011;69812;42.632;23.440;2023-10-13T13:03:47;11.80;;;3.40;;
68178;SDS011;69812;42.632;23.440;2023-10-13T13:06:20;8.65;;;3.28;;
68178;SDS011;69812;42.632;23.440;2023-10-13T13:09:01;4.80;;;3.00;;
68178;SDS011;69812;42.632;23.440;2023-10-13T13:11:26;8.93;;;3.33;;
68178;SDS011;69812;42.632;23.440;2023-10-13T13:13:55;5.55;;;2.30;;
68178;SDS011;69812;42.632;23.440;2023-10-13T13:16:20;7.80;;;2.83;;
68178;SDS011;69812;42.632;23.440;2023-10-13T13:18:49;4.53;;;2.03;;
68178;SDS011;69812;42.632;23.440;2023-10-13T13:21:15;6.90;;;2.47;;
68178;SDS011;69812;42.632;23.440;2023-10-13T13:23:46;8.88;;;3.20;;
68178;SDS011;69812;42.632;23.440;2023-10-13T13:26:12;5.07;;;2.80;;
68178;SDS011;69812;42.632;23.440;2023-10-13T13:28:46;8.32;;;3.22;;
68178;SDS011;69812;42.632;23.440;2023-10-13T13:31:16;6.70;;;3.10;;
68178;SDS011;69812;42.632;23.440;2023-10-13T13:33:42;7.03;;;2.90;;
68178;SDS011;69812;42.632;23.440;2023-10-13T13:36:09;9.77;;;3.05;;
68178;SDS011;69812;42.632;23.440;2023-10-13T13:38:41;6.03;;;2.75;;
68178;SDS011;69812;42.632;23.440;2023-10-13T13:41:13;6.45;;;3.38;;
68178;SDS011;69812;42.632;23.440;2023-10-13T13:43:42;6.43;;;2.90;;
68178;SDS011;69812;42.632;23.440;2023-10-13T13:46:20;6.50;;;3.05;;
68178;SDS011;69812;42.632;23.440;2023-10-13T13:48:58;6.90;;;2.70;;
68178;SDS011;69812;42.632;23.440;2023-10-13T13:51:25;8.88;;;2.75;;
68178;SDS011;69812;42.632;23.440;2023-10-13T13:53:54;5.35;;;2.78;;
68178;SDS011;69812;42.632;23.440;2023-10-13T13:56:21;9.77;;;3.42;;
68178;SDS011;69812;42.632;23.440;2023-10-13T13:58:50;7.32;;;3.38;;
68178;SDS011;69812;42.632;23.440;2023-10-13T14:01:17;9.02;;;3.25;;
68178;SDS011;69812;42.632;23.440;2023-10-13T14:03:47;4.80;;;2.97;;
68178;SDS011;69812;42.632;23.440;2023-10-13T14:06:20;6.65;;;3.42;;
68178;SDS011;69812;42.632;23.440;2023-10-13T14:08:52;8.18;;;3.55;;
68178;SDS011;69812;42.632;23.440;2023-10-13T14:11:29;6.95;;;3.78;;
68178;SDS011;69812;42.632;23.440;2023-10-13T14:16:40;7.68;;;3.63;;
68178;SDS011;69812;42.632;23.440;2023-10-13T14:19:12;6.65;;;3.13;;
68178;SDS011;69812;42.632;23.440;2023-10-13T14:21:37;7.10;;;3.17;;
68178;SDS011;69812;42.632;23.440;2023-10-13T14:26:40;9.00;;;3.50;;
68178;SDS011;69812;42.632;23.440;2023-10-13T14:29:08;13.13;;;3.83;;
68178;SDS011;69812;42.632;23.440;2023-10-13T14:31:34;8.85;;;3.20;;
68178;SDS011;69812;42.632;23.440;2023-10-13T14:34:04;7.68;;;2.92;;
68178;SDS011;69812;42.632;23.440;2023-10-13T14:36:30;7.68;;;3.08;;
68178;SDS011;69812;42.632;23.440;2023-10-13T14:38:59;5.40;;;3.08;;
68178;SDS011;69812;42.632;23.440;2023-10-13T14:41:27;9.75;;;3.30;;
68178;SDS011;69812;42.632;23.440;2023-10-13T14:43:56;9.48;;;3.10;;
68178;SDS011;69812;42.632;23.440;2023-10-13T14:46:30;5.55;;;3.45;;
68178;SDS011;69812;42.632;23.440;2023-10-13T14:48:55;9.10;;;3.00;;
68178;SDS011;69812;42.632;23.440;2023-10-13T14:51:21;8.80;;;3.22;;
68178;SDS011;69812;42.632;23.440;2023-10-13T14:53:46;7.85;;;3.88;;
68178;SDS011;69812;42.632;23.440;2023-10-13T14:56:12;7.22;;;3.40;;
68178;SDS011;69812;42.632;23.440;2023-10-13T14:58:39;9.63;;;3.30;;
68178;SDS011;69812;42.632;23.440;2023-10-13T15:01:14;5.95;;;3.40;;
68178;SDS011;69812;42.632;23.440;2023-10-13T15:06:16;9.38;;;4.07;;
68178;SDS011;69812;42.632;23.440;2023-10-13T15:08:53;16.90;;;4.00;;
68178;SDS011;69812;42.632;23.440;2023-10-13T15:11:21;13.60;;;3.42;;
68178;SDS011;69812;42.632;23.440;2023-10-13T15:13:51;6.93;;;3.20;;
68178;SDS011;69812;42.632;23.440;2023-10-13T15:16:24;8.75;;;3.35;;
68178;SDS011;69812;42.632;23.440;2023-10-13T15:18:51;8.93;;;3.20;;
68178;SDS011;69812;42.632;23.440;2023-10-13T15:21:24;10.15;;;3.60;;
68178;SDS011;69812;42.632;23.440;2023-10-13T15:23:57;12.80;;;3.60;;
68178;SDS011;69812;42.632;23.440;2023-10-13T15:26:28;11.82;;;2.97;;
68178;SDS011;69812;42.632;23.440;2023-10-13T15:28:54;6.80;;;2.85;;
68178;SDS011;69812;42.632;23.440;2023-10-13T15:31:21;10.23;;;3.00;;
68178;SDS011;69812;42.632;23.440;2023-10-13T15:33:59;8.02;;;2.58;;
68178;SDS011;69812;42.632;23.440;2023-10-13T15:36:26;7.07;;;2.50;;
68178;SDS011;69812;42.632;23.440;2023-10-13T15:38:51;5.60;;;2.00;;
68178;SDS011;69812;42.632;23.440;2023-10-13T15:41:23;10.57;;;2.78;;
68178;SDS011;69812;42.632;23.440;2023-10-13T15:43:50;6.95;;;2.53;;
68178;SDS011;69812;42.632;23.440;2023-10-13T15:46:16;6.32;;;2.20;;
68178;SDS011;69812;42.632;23.440;2023-10-13T15:48:43;11.00;;;2.70;;
68178;SDS011;69812;42.632;23.440;2023-10-13T15:51:11;10.18;;;2.53;;
68178;SDS011;69812;42.632;23.440;2023-10-13T15:53:40;8.70;;;2.30;;
68178;SDS011;69812;42.632;23.440;2023-10-13T15:56:05;14.13;;;2.67;;
68178;SDS011;69812;42.632;23.440;2023-10-13T15:58:43;6.65;;;2.40;;
68178;SDS011;69812;42.632;23.440;2023-10-13T16:03:41;7.57;;;2.17;;
68178;SDS011;69812;42.632;23.440;2023-10-13T16:06:14;4.68;;;1.65;;
68178;SDS011;69812;42.632;23.440;2023-10-13T16:08:40;6.45;;;2.05;;
68178;SDS011;69812;42.632;23.440;2023-10-13T16:11:09;7.05;;;2.15;;
68178;SDS011;69812;42.632;23.440;2023-10-13T16:13:42;6.03;;;1.98;;
68178;SDS011;69812;42.632;23.440;2023-10-13T16:16:15;5.32;;;1.77;;
68178;SDS011;69812;42.632;23.440;2023-10-13T16:18:42;6.97;;;2.10;;
68178;SDS011;69812;42.632;23.440;2023-10-13T16:21:11;3.55;;;1.60;;
68178;SDS011;69812;42.632;23.440;2023-10-13T16:23:43;6.20;;;1.70;;
68178;SDS011;69812;42.632;23.440;2023-10-13T16:26:19;5.13;;;2.08;;